Terminal Aerodrome Forecast
Issued by NWS Twin Cities, MN

Home | Current Version | Previous Version | Text Only | Print | Product List | Glossary Off
Versions: 1 2 3 4 5 6 7 8 9 10 11 12 13 14 15 16 17

000
FTUS43 KMPX 241100
TAFEAU
TAF
KEAU 241125Z 2412/2512 12009KT P6SM BKN015 OVC030
     FM241500 14010KT P6SM BKN020
     FM241800 16012G19KT P6SM SCT015 BKN150
     FM250300 17008KT P6SM VCTS SCT020 BKN050CB
      TEMPO 2504/2507 2SM -TSRA BR BKN020CB
     FM250800 19004KT P6SM SCT020 BKN080=

USA.gov is the U.S. government's official web portal to all federal, state and local government web resources and services.